createdAt,value
2018-04-16T00:00:16.652Z,54.03
2018-04-16T00:00:38.711Z,54.01
2018-04-16T00:01:00.767Z,54.02
2018-04-16T00:01:23.587Z,54.03
2018-04-16T00:01:46.407Z,54.03
2018-04-16T00:02:08.473Z,54.05
2018-04-16T00:02:30.525Z,54.03
2018-04-16T00:02:52.598Z,54.03
2018-04-16T00:03:14.673Z,54.08
2018-04-16T00:03:37.514Z,54.08
2018-04-16T00:03:59.576Z,54.09
2018-04-16T00:04:21.640Z,54.09
2018-04-16T00:04:43.698Z,54.10
2018-04-16T00:05:05.782Z,54.14
2018-04-16T00:05:27.836Z,54.16
2018-04-16T00:05:49.927Z,54.13
2018-04-16T00:06:11.995Z,54.10
2018-04-16T00:06:34.103Z,54.09
2018-04-16T00:06:56.167Z,54.10
2018-04-16T00:07:18.215Z,54.12
2018-04-16T00:07:41.040Z,54.17
2018-04-16T00:08:03.862Z,54.24
2018-04-16T00:08:25.934Z,54.17
2018-04-16T00:08:48.005Z,54.16
2018-04-16T00:09:10.829Z,54.14
2018-04-16T00:09:32.889Z,54.15
2018-04-16T00:09:54.963Z,54.12
2018-04-16T00:10:17.042Z,54.12
2018-04-16T00:10:39.099Z,54.09
2018-04-16T00:11:01.150Z,54.10
2018-04-16T00:11:23.215Z,54.09
2018-04-16T00:11:45.278Z,54.07
2018-04-16T00:12:07.346Z,54.09
2018-04-16T00:12:29.428Z,54.08
2018-04-16T00:12:51.504Z,54.15
2018-04-16T00:13:13.561Z,54.26
2018-04-16T00:13:35.609Z,54.19
2018-04-16T00:13:57.654Z,54.19
2018-04-16T00:14:19.711Z,54.18
2018-04-16T00:14:41.763Z,54.24
2018-04-16T00:15:03.849Z,54.26
2018-04-16T00:15:25.898Z,54.20
2018-04-16T00:15:47.945Z,54.21
2018-04-16T00:16:10.015Z,54.21
2018-04-16T00:16:32.083Z,54.21
2018-04-16T00:16:54.135Z,54.24
2018-04-16T00:17:16.206Z,54.25
2018-04-16T00:17:38.251Z,54.20
2018-04-16T00:18:01.087Z,54.20
2018-04-16T00:18:23.933Z,54.23
2018-04-16T00:18:45.980Z,54.22
2018-04-16T00:19:08.041Z,54.22
2018-04-16T00:19:30.109Z,54.20
2018-04-16T00:19:52.167Z,54.20
2018-04-16T00:20:14.308Z,54.21
2018-04-16T00:20:37.127Z,54.23
2018-04-16T00:20:59.175Z,54.20
2018-04-16T00:21:21.235Z,54.27
2018-04-16T00:21:43.302Z,54.46
2018-04-16T00:22:05.355Z,54.46
2018-04-16T00:22:27.402Z,54.38
2018-04-16T00:22:49.457Z,54.33
2018-04-16T00:23:11.511Z,54.39
2018-04-16T00:23:33.587Z,54.38
2018-04-16T00:23:56.404Z,54.30
2018-04-16T00:24:19.234Z,54.29
2018-04-16T00:24:42.164Z,54.33
2018-04-16T00:25:04.220Z,54.29
2018-04-16T00:25:26.469Z,54.26
2018-04-16T00:25:49.193Z,54.32
2018-04-16T00:26:11.246Z,54.29
2018-04-16T00:26:33.296Z,54.26
2018-04-16T00:26:56.116Z,54.28
2018-04-16T00:27:18.955Z,54.30
2018-04-16T00:27:41.783Z,54.27
2018-04-16T00:28:03.837Z,54.28
2018-04-16T00:28:25.904Z,54.27
2018-04-16T00:28:47.963Z,54.29
2018-04-16T00:29:10.022Z,54.26
2018-04-16T00:29:32.079Z,54.28
2018-04-16T00:29:54.900Z,54.27
2018-04-16T00:30:17.008Z,54.28
2018-04-16T00:30:39.084Z,54.33
2018-04-16T00:31:01.157Z,54.29
2018-04-16T00:31:23.208Z,54.29
2018-04-16T00:31:50.976Z,54.29
2018-04-16T00:32:18.687Z,54.29
2018-04-16T00:32:47.029Z,54.30
2018-04-16T00:33:14.729Z,54.29
2018-04-16T00:33:42.275Z,54.29
2018-04-16T00:34:09.854Z,54.29
2018-04-16T00:34:37.517Z,54.29
2018-04-16T00:35:05.148Z,54.29
2018-04-16T00:35:32.703Z,54.32
2018-04-16T00:36:01.735Z,54.27
2018-04-16T00:36:29.232Z,54.28
2018-04-16T00:36:56.948Z,54.29
2018-04-16T00:37:24.632Z,54.30
2018-04-16T00:37:52.176Z,54.30
2018-04-16T00:38:19.725Z,54.27
2018-04-16T00:38:47.275Z,54.49
2018-04-16T00:39:14.929Z,54.40
2018-04-16T00:39:42.517Z,54.49
2018-04-16T00:40:10.061Z,54.47
2018-04-16T00:40:37.655Z,54.46
2018-04-16T00:41:05.196Z,54.48
2018-04-16T00:41:32.722Z,54.53
2018-04-16T00:42:00.320Z,54.50
2018-04-16T00:42:28.665Z,54.52
2018-04-16T00:42:56.204Z,54.65
2018-04-16T00:43:23.762Z,54.58
2018-04-16T00:43:52.126Z,54.58
2018-04-16T00:45:12.952Z,54.66
2018-04-16T00:45:40.719Z,54.66
2018-04-16T00:46:08.446Z,54.66
2018-04-16T00:46:36.728Z,54.67
2018-04-16T00:47:04.253Z,54.69
2018-04-16T00:47:32.517Z,54.68
2018-04-16T00:48:00.799Z,54.58
2018-04-16T00:48:28.354Z,54.57
2018-04-16T00:48:55.951Z,54.57
2018-04-16T00:49:23.458Z,54.58
2018-04-16T00:49:51.058Z,54.57
2018-04-16T00:50:19.339Z,54.54
2018-04-16T00:50:47.098Z,54.55
2018-04-16T00:51:14.601Z,54.55
2018-04-16T00:51:42.193Z,54.52
2018-04-16T00:52:09.713Z,54.52
2018-04-16T00:52:38.014Z,54.52
2018-04-16T00:53:05.652Z,54.51
2018-04-16T00:53:33.971Z,54.52
2018-04-16T00:54:01.509Z,54.51
2018-04-16T00:54:29.054Z,54.55
2018-04-16T00:54:56.699Z,54.51
2018-04-16T00:55:25.920Z,54.53
2018-04-16T00:55:54.365Z,54.52
2018-04-16T00:56:22.173Z,54.51
2018-04-16T00:56:49.888Z,54.53
2018-04-16T00:58:16.457Z,54.51
2018-04-16T00:58:44.049Z,54.51
2018-04-16T00:59:11.798Z,54.51
2018-04-16T00:59:40.093Z,54.50
2018-04-16T01:00:07.688Z,54.49
2018-04-16T01:00:35.164Z,54.48
2018-04-16T01:01:03.513Z,54.50
2018-04-16T01:01:31.031Z,54.49
2018-04-16T01:01:58.619Z,54.50
2018-04-16T01:02:26.874Z,54.49
2018-04-16T01:02:55.308Z,54.50
2018-04-16T01:03:22.869Z,54.50
2018-04-16T01:03:50.403Z,54.50
2018-04-16T01:04:18.035Z,54.51
2018-04-16T01:04:45.607Z,54.50
2018-04-16T01:05:13.147Z,54.48
2018-04-16T01:05:40.798Z,54.53
2018-04-16T01:06:08.498Z,54.49
2018-04-16T01:06:36.101Z,54.48
2018-04-16T01:07:03.703Z,54.47
2018-04-16T01:07:31.218Z,54.50
2018-04-16T01:07:59.580Z,54.46
2018-04-16T01:08:27.898Z,54.48
2018-04-16T01:08:55.524Z,54.49
2018-04-16T01:09:23.026Z,54.48
2018-04-16T01:09:51.372Z,54.46
2018-04-16T01:10:18.903Z,54.47
2018-04-16T01:10:46.485Z,54.47
2018-04-16T01:11:14.855Z,54.46
2018-04-16T01:11:43.191Z,54.47
2018-04-16T01:12:10.709Z,54.47
2018-04-16T01:12:38.291Z,54.47
2018-04-16T01:14:03.832Z,54.47
2018-04-16T01:14:31.346Z,54.50
2018-04-16T01:14:58.921Z,54.48
2018-04-16T01:15:26.429Z,54.49
2018-04-16T01:15:53.980Z,54.46
2018-04-16T01:16:21.556Z,54.48
2018-04-16T01:16:49.849Z,54.48
2018-04-16T01:17:17.372Z,54.46
2018-04-16T01:17:44.893Z,54.47
2018-04-16T01:18:13.243Z,54.48
2018-04-16T01:18:40.788Z,54.49
2018-04-16T01:19:08.331Z,54.49
2018-04-16T01:19:38.981Z,54.48
2018-04-16T01:20:07.287Z,54.50
2018-04-16T01:20:34.802Z,54.49
2018-04-16T01:21:02.407Z,54.52
2018-04-16T01:21:30.035Z,54.50
2018-04-16T01:21:57.555Z,54.46
2018-04-16T01:22:25.168Z,54.48
2018-04-16T01:22:53.545Z,54.47
2018-04-16T01:23:21.891Z,54.51
2018-04-16T01:23:49.423Z,54.48
2018-04-16T01:24:16.971Z,54.49
2018-04-16T01:24:44.532Z,54.48
2018-04-16T01:25:12.197Z,54.49
2018-04-16T01:25:40.541Z,54.51
2018-04-16T01:26:08.159Z,54.48
2018-04-16T01:26:35.754Z,54.49
2018-04-16T01:27:04.087Z,54.51
2018-04-16T01:27:31.635Z,54.52
2018-04-16T01:27:59.140Z,54.51
2018-04-16T01:28:26.719Z,54.51
2018-04-16T01:28:54.288Z,54.51
2018-04-16T01:29:21.817Z,54.53
2018-04-16T01:29:50.891Z,54.50
2018-04-16T01:30:18.557Z,54.52
2018-04-16T01:30:46.069Z,54.52
2018-04-16T01:31:13.645Z,54.55
2018-04-16T01:31:41.145Z,54.54
2018-04-16T01:32:08.736Z,54.54
2018-04-16T01:32:36.298Z,54.52
2018-04-16T01:33:04.619Z,54.54
2018-04-16T01:33:32.269Z,54.52
2018-04-16T01:33:59.936Z,54.55
2018-04-16T01:34:27.485Z,54.56
2018-04-16T01:34:55.164Z,54.54
2018-04-16T01:35:23.622Z,54.55
2018-04-16T01:35:51.972Z,54.56
2018-04-16T01:36:19.528Z,54.56
2018-04-16T01:36:47.894Z,54.56
2018-04-16T01:37:16.236Z,54.59
2018-04-16T01:37:43.716Z,54.58
2018-04-16T01:38:12.041Z,54.57
2018-04-16T01:38:39.612Z,54.57
2018-04-16T01:39:07.921Z,54.59
2018-04-16T01:39:35.522Z,54.56
2018-04-16T01:40:03.046Z,54.59
2018-04-16T01:40:30.599Z,54.56
2018-04-16T01:40:58.253Z,54.58
2018-04-16T01:41:25.887Z,54.58
2018-04-16T01:41:53.579Z,54.56
2018-04-16T01:42:21.900Z,54.57
2018-04-16T01:42:49.423Z,54.56
2018-04-16T01:44:09.796Z,54.56
2018-04-16T01:44:37.321Z,54.56
2018-04-16T01:45:04.940Z,54.58
2018-04-16T01:45:34.025Z,54.60
2018-04-16T01:46:01.512Z,54.59
2018-04-16T01:46:29.018Z,54.60
2018-04-16T01:46:57.353Z,54.63
2018-04-16T01:47:24.883Z,54.62
2018-04-16T01:47:52.391Z,54.64
2018-04-16T01:48:20.658Z,54.59
2018-04-16T01:48:48.179Z,54.65
2018-04-16T01:49:15.717Z,54.65
2018-04-16T01:49:43.239Z,54.66
2018-04-16T01:50:10.757Z,54.66
2018-04-16T01:50:38.455Z,54.64
2018-04-16T01:51:06.089Z,54.66
2018-04-16T01:51:33.612Z,54.68
2018-04-16T01:52:01.230Z,54.64
2018-04-16T01:52:28.852Z,54.64
2018-04-16T01:52:56.352Z,54.67
2018-04-16T01:53:23.865Z,54.65
2018-04-16T01:53:52.348Z,54.66
2018-04-16T01:54:20.063Z,54.62
2018-04-16T01:54:47.694Z,54.64
2018-04-16T01:55:15.278Z,54.61
2018-04-16T01:55:42.918Z,54.63
2018-04-16T01:56:11.191Z,54.62
2018-04-16T01:56:38.755Z,54.62
2018-04-16T01:57:06.494Z,54.62
2018-04-16T01:57:34.079Z,54.63
2018-04-16T01:58:01.636Z,54.61
2018-04-16T01:58:29.182Z,54.62
2018-04-16T01:58:56.735Z,54.63
2018-04-16T01:59:24.394Z,54.62
2018-04-16T01:59:51.955Z,54.65
2018-04-16T02:00:20.310Z,54.65
2018-04-16T02:00:48.642Z,54.66
2018-04-16T02:01:16.175Z,54.69
2018-04-16T02:01:43.746Z,54.67
2018-04-16T02:02:11.319Z,54.67
2018-04-16T02:02:39.643Z,54.70
2018-04-16T02:03:07.192Z,54.70
2018-04-16T02:03:34.716Z,54.70
2018-04-16T02:04:58.106Z,54.70
2018-04-16T02:05:25.636Z,54.70
2018-04-16T02:05:53.196Z,54.72
2018-04-16T02:06:20.755Z,54.70
2018-04-16T02:06:48.380Z,54.68
2018-04-16T02:07:16.159Z,54.70
2018-04-16T02:07:44.635Z,54.70
2018-04-16T02:08:12.992Z,54.69
2018-04-16T02:08:41.339Z,54.69
2018-04-16T02:09:08.994Z,54.71
2018-04-16T02:09:36.540Z,54.72
2018-04-16T02:10:04.196Z,54.71
2018-04-16T02:10:31.822Z,54.69
2018-04-16T02:10:59.295Z,54.70
2018-04-16T02:11:27.648Z,54.70
2018-04-16T02:11:55.380Z,54.70
2018-04-16T02:12:23.088Z,54.71
2018-04-16T02:13:47.252Z,54.72
2018-04-16T02:14:14.804Z,54.72
2018-04-16T02:14:42.317Z,54.74
2018-04-16T02:15:10.594Z,54.71
2018-04-16T02:15:38.864Z,54.72
2018-04-16T02:16:06.507Z,54.74
2018-04-16T02:16:34.840Z,54.73
2018-04-16T02:17:03.140Z,54.72
2018-04-16T02:17:30.700Z,54.71
2018-04-16T02:17:58.392Z,54.73
2018-04-16T02:18:25.936Z,54.72
2018-04-16T02:18:53.492Z,54.71
2018-04-16T02:20:19.175Z,54.76
2018-04-16T02:20:46.728Z,54.78
2018-04-16T02:21:14.300Z,54.81
2018-04-16T02:21:41.838Z,54.79
2018-04-16T02:22:10.951Z,54.78
2018-04-16T02:22:39.243Z,54.77
2018-04-16T02:23:06.881Z,54.78
2018-04-16T02:23:34.509Z,54.80
2018-04-16T02:24:02.839Z,54.79
2018-04-16T02:24:30.368Z,54.79
2018-04-16T02:24:58.000Z,54.77
2018-04-16T02:25:25.819Z,54.81
2018-04-16T02:25:54.140Z,54.75
2018-04-16T02:26:21.698Z,54.79
2018-04-16T02:26:49.252Z,54.78
2018-04-16T02:27:16.729Z,54.79
2018-04-16T02:27:44.549Z,54.80
2018-04-16T02:28:12.314Z,54.83
2018-04-16T02:28:40.652Z,54.80
2018-04-16T02:29:08.225Z,54.81
2018-04-16T02:29:36.720Z,54.79
2018-04-16T02:30:04.434Z,54.79
2018-04-16T02:30:32.084Z,54.79
2018-04-16T02:31:00.444Z,54.82
2018-04-16T02:31:28.086Z,54.79
2018-04-16T02:31:55.635Z,54.79
2018-04-16T02:32:23.196Z,54.83
2018-04-16T02:32:51.537Z,54.80
2018-04-16T02:33:19.084Z,54.80
2018-04-16T02:34:39.845Z,54.79
2018-04-16T02:35:07.343Z,54.79
2018-04-16T02:35:35.678Z,54.79
2018-04-16T02:36:03.217Z,54.82
2018-04-16T02:36:30.886Z,54.80
2018-04-16T02:36:58.547Z,54.83
2018-04-16T02:37:26.842Z,54.82
2018-04-16T02:37:54.435Z,54.82
2018-04-16T02:38:22.005Z,54.82
2018-04-16T02:38:50.349Z,54.84
2018-04-16T02:39:17.912Z,54.83
2018-04-16T02:39:45.485Z,54.89
2018-04-16T02:40:13.045Z,54.84
2018-04-16T02:40:40.531Z,54.83
2018-04-16T02:41:08.037Z,54.83
2018-04-16T02:41:35.565Z,54.85
2018-04-16T02:42:03.175Z,54.85
2018-04-16T02:42:30.848Z,54.96
2018-04-16T02:43:58.180Z,55.38
2018-04-16T02:44:26.496Z,55.21
2018-04-16T02:44:54.451Z,55.36
2018-04-16T02:45:22.205Z,55.35
2018-04-16T02:45:49.775Z,55.23
2018-04-16T02:46:17.332Z,55.13
2018-04-16T02:47:40.011Z,55.07
2018-04-16T02:48:07.570Z,55.05
2018-04-16T02:48:35.175Z,55.08
2018-04-16T02:49:02.705Z,55.20
2018-04-16T02:49:30.427Z,55.26
2018-04-16T02:49:58.097Z,55.37
2018-04-16T02:50:25.753Z,55.26
2018-04-16T02:50:53.400Z,55.18
2018-04-16T02:51:20.919Z,55.25
2018-04-16T02:51:48.500Z,55.25
2018-04-16T02:52:16.194Z,55.19
2018-04-16T02:52:43.792Z,55.19
2018-04-16T02:53:11.454Z,55.17
2018-04-16T02:53:39.782Z,55.18
2018-04-16T02:55:00.616Z,55.21
2018-04-16T02:55:28.953Z,55.23
2018-04-16T02:55:56.555Z,55.21
2018-04-16T02:56:24.144Z,55.20
2018-04-16T02:56:51.699Z,55.16
2018-04-16T02:57:19.210Z,55.20
2018-04-16T02:57:46.753Z,55.30
2018-04-16T02:58:14.343Z,55.26
2018-04-16T02:58:41.974Z,55.18
2018-04-16T02:59:09.550Z,55.15
2018-04-16T02:59:37.099Z,55.16
2018-04-16T03:00:05.445Z,55.14
2018-04-16T03:00:33.062Z,55.09
2018-04-16T03:01:00.619Z,55.19
2018-04-16T03:01:28.247Z,55.27
2018-04-16T03:01:55.754Z,55.31
2018-04-16T03:02:24.092Z,55.30
2018-04-16T03:02:51.616Z,55.25
2018-04-16T03:03:19.188Z,55.36
2018-04-16T03:03:46.774Z,55.26
2018-04-16T03:04:14.357Z,55.24
2018-04-16T03:04:42.035Z,55.19
2018-04-16T03:05:09.710Z,55.18
2018-04-16T03:05:38.036Z,55.16
2018-04-16T03:06:05.584Z,55.18
2018-04-16T03:06:33.129Z,55.19
2018-04-16T03:07:00.789Z,55.20
2018-04-16T03:07:28.395Z,55.20
2018-04-16T03:07:56.090Z,55.20
2018-04-16T03:08:23.784Z,55.16
2018-04-16T03:08:51.380Z,55.16
2018-04-16T03:09:18.928Z,55.17
2018-04-16T03:09:46.568Z,55.21
2018-04-16T03:10:14.260Z,55.17
2018-04-16T03:10:41.820Z,55.13
2018-04-16T03:11:09.490Z,55.11
2018-04-16T03:11:37.121Z,55.15
2018-04-16T03:12:04.755Z,55.14
2018-04-16T03:12:32.399Z,55.11
2018-04-16T03:13:00.011Z,55.13
2018-04-16T03:13:27.531Z,55.16
2018-04-16T03:13:55.097Z,55.14
2018-04-16T03:14:22.737Z,55.12
2018-04-16T03:14:50.280Z,55.12
2018-04-16T03:16:16.746Z,55.11
2018-04-16T03:16:45.066Z,55.10
2018-04-16T03:17:12.734Z,55.10
2018-04-16T03:17:40.289Z,55.11
2018-04-16T03:18:07.861Z,55.16
2018-04-16T03:18:35.372Z,55.14
2018-04-16T03:19:02.865Z,55.18
2018-04-16T03:19:30.413Z,55.12
2018-04-16T03:20:52.717Z,55.13
2018-04-16T03:21:21.063Z,55.08
2018-04-16T03:21:48.655Z,55.10
2018-04-16T03:22:16.156Z,55.11
2018-04-16T03:22:43.697Z,55.14
2018-04-16T03:23:11.254Z,55.11
2018-04-16T03:24:40.115Z,55.08
2018-04-16T03:25:07.856Z,55.08
2018-04-16T03:25:35.580Z,55.08
2018-04-16T03:26:03.817Z,55.09
2018-04-16T03:26:31.451Z,55.10
2018-04-16T03:26:59.745Z,55.08
2018-04-16T03:27:27.340Z,55.10
2018-04-16T03:27:55.052Z,55.05
2018-04-16T03:28:22.751Z,55.06
2018-04-16T03:28:50.259Z,55.07
2018-04-16T03:29:17.826Z,55.05
2018-04-16T03:29:45.517Z,55.04
2018-04-16T03:30:13.847Z,55.06
2018-04-16T03:30:41.409Z,55.08
2018-04-16T03:31:09.766Z,55.10
2018-04-16T03:31:37.305Z,55.09
2018-04-16T03:32:04.849Z,55.09
2018-04-16T03:32:32.368Z,55.11
2018-04-16T03:32:59.945Z,55.13
2018-04-16T03:33:27.494Z,55.07
2018-04-16T03:33:55.035Z,55.09
2018-04-16T03:34:22.587Z,55.06
2018-04-16T03:34:50.094Z,55.07
2018-04-16T03:35:17.584Z,55.07
2018-04-16T03:35:45.125Z,55.10
2018-04-16T03:36:12.617Z,55.13
2018-04-16T03:36:40.166Z,55.13
2018-04-16T03:37:07.878Z,55.07
2018-04-16T03:37:36.205Z,55.17
2018-04-16T03:38:03.732Z,55.15
2018-04-16T03:38:31.276Z,55.09
2018-04-16T03:38:58.796Z,55.07
2018-04-16T03:39:26.311Z,55.14
2018-04-16T03:39:53.882Z,55.11
2018-04-16T03:40:22.215Z,55.12
2018-04-16T03:40:49.733Z,55.08
2018-04-16T03:41:17.305Z,55.06
2018-04-16T03:42:38.838Z,55.13
2018-04-16T03:43:07.179Z,55.07
2018-04-16T03:43:34.726Z,55.09
2018-04-16T03:44:02.283Z,55.05
2018-04-16T03:44:29.971Z,55.05
2018-04-16T03:44:57.600Z,55.08
2018-04-16T03:45:26.037Z,55.02
2018-04-16T03:45:53.628Z,54.99
2018-04-16T03:46:21.149Z,55.03
2018-04-16T03:46:49.421Z,55.11
2018-04-16T03:47:17.648Z,55.05
2018-04-16T03:47:45.173Z,55.07
2018-04-16T03:48:12.690Z,55.08
2018-04-16T03:48:40.215Z,55.08
2018-04-16T03:49:08.551Z,55.16
2018-04-16T03:49:36.056Z,55.09
2018-04-16T03:51:00.928Z,55.12
2018-04-16T03:51:26.848Z,55.12
2018-04-16T03:52:48.351Z,55.14
2018-04-16T03:53:15.866Z,55.12
2018-04-16T03:53:48.671Z,55.19
2018-04-16T03:54:10.846Z,55.18
2018-04-16T03:54:32.904Z,55.23
2018-04-16T03:55:53.589Z,55.23
2018-04-16T03:56:15.655Z,55.19
2018-04-16T03:56:37.706Z,55.21
2018-04-16T03:57:00.531Z,55.19
2018-04-16T03:57:23.349Z,55.13
2018-04-16T03:57:45.437Z,55.17
2018-04-16T03:58:07.496Z,55.18
2018-04-16T03:58:29.553Z,55.17
2018-04-16T03:58:51.622Z,55.15
2018-04-16T03:59:15.188Z,55.16
2018-04-16T03:59:37.245Z,55.12
2018-04-16T03:59:59.305Z,55.15
2018-04-16T04:00:21.406Z,55.15
2018-04-16T04:00:43.463Z,55.16
2018-04-16T04:01:06.320Z,55.13
2018-04-16T04:01:28.367Z,55.11
2018-04-16T04:01:50.450Z,55.14
2018-04-16T04:02:12.504Z,55.15
2018-04-16T04:02:34.562Z,55.13
2018-04-16T04:02:57.496Z,55.15
2018-04-16T04:03:19.551Z,55.16
2018-04-16T04:03:41.599Z,55.14
2018-04-16T04:04:03.678Z,55.14
2018-04-16T04:04:25.745Z,55.11
2018-04-16T04:04:47.798Z,55.12
2018-04-16T04:05:10.621Z,55.11
2018-04-16T04:05:33.439Z,55.11
2018-04-16T04:05:55.489Z,55.16
2018-04-16T04:06:18.316Z,55.15
2018-04-16T04:06:41.131Z,55.27
2018-04-16T04:07:03.184Z,55.17
2018-04-16T04:07:25.242Z,55.16
2018-04-16T04:07:47.293Z,55.13
2018-04-16T04:08:09.354Z,55.26
2018-04-16T04:08:31.416Z,55.23
2018-04-16T04:08:53.466Z,55.18
2018-04-16T04:09:16.296Z,55.17
2018-04-16T04:09:39.193Z,55.18
2018-04-16T04:10:01.245Z,55.19
2018-04-16T04:10:24.159Z,55.17
2018-04-16T04:10:46.223Z,55.20
2018-04-16T04:11:08.327Z,55.18
2018-04-16T04:11:30.410Z,55.20
2018-04-16T04:11:52.462Z,55.17
2018-04-16T04:12:15.276Z,55.23
2018-04-16T04:12:37.322Z,55.45
2018-04-16T04:12:59.376Z,55.29
2018-04-16T04:13:21.436Z,55.39
2018-04-16T04:13:44.280Z,55.40
2018-04-16T04:14:07.103Z,55.33
2018-04-16T04:14:29.951Z,55.34
2018-04-16T04:14:52.770Z,55.29
2018-04-16T04:15:14.818Z,55.30
2018-04-16T04:15:36.875Z,55.60
2018-04-16T04:15:59.009Z,55.32
2018-04-16T04:16:21.109Z,55.39
2018-04-16T04:16:43.163Z,55.37
2018-04-16T04:17:05.993Z,55.40
2018-04-16T04:17:28.043Z,55.44
2018-04-16T04:17:50.108Z,55.38
2018-04-16T04:18:12.182Z,55.34
2018-04-16T04:18:34.240Z,55.33
2018-04-16T04:18:56.467Z,55.32
2018-04-16T04:19:18.549Z,55.35
2018-04-16T04:19:40.580Z,55.35
2018-04-16T04:20:02.651Z,55.32
2018-04-16T04:20:25.469Z,55.38
2018-04-16T04:20:47.539Z,55.32
2018-04-16T04:21:09.654Z,55.31
2018-04-16T04:21:31.712Z,55.45
2018-04-16T04:21:53.760Z,55.40
2018-04-16T04:22:16.592Z,55.40
2018-04-16T04:22:39.519Z,55.41
2018-04-16T04:23:02.347Z,55.36
2018-04-16T04:23:24.394Z,55.40
2018-04-16T04:23:46.447Z,55.41
2018-04-16T04:24:08.506Z,55.36
2018-04-16T04:24:31.314Z,55.36
2018-04-16T04:24:53.376Z,55.37
2018-04-16T04:25:15.472Z,55.39
2018-04-16T04:25:38.297Z,55.41
2018-04-16T04:26:00.365Z,55.40
2018-04-16T04:26:22.444Z,55.50
2018-04-16T04:26:45.275Z,55.54
2018-04-16T04:27:08.092Z,55.44
2018-04-16T04:27:30.144Z,55.44
2018-04-16T04:27:53.114Z,55.46
2018-04-16T04:28:15.198Z,55.46
2018-04-16T04:28:38.026Z,55.54
2018-04-16T04:29:00.852Z,55.44
2018-04-16T04:29:22.910Z,55.48
2018-04-16T04:29:44.974Z,55.59
2018-04-16T04:30:07.032Z,55.62
2018-04-16T04:30:29.100Z,55.58
2018-04-16T04:30:51.140Z,55.54
2018-04-16T04:31:13.969Z,55.50
2018-04-16T04:31:36.048Z,55.51
2018-04-16T04:31:58.107Z,55.51
2018-04-16T04:32:20.164Z,55.46
2018-04-16T04:32:42.241Z,55.53
2018-04-16T04:33:05.071Z,55.51
2018-04-16T04:33:27.134Z,55.47
2018-04-16T04:33:49.213Z,55.43
2018-04-16T04:34:11.255Z,55.52
2018-04-16T04:34:33.311Z,55.49
2018-04-16T04:34:55.381Z,55.47
2018-04-16T04:35:17.448Z,55.46
2018-04-16T04:35:39.501Z,55.46
2018-04-16T04:36:02.489Z,55.46
2018-04-16T04:36:24.656Z,55.45
2018-04-16T04:36:46.715Z,55.46
2018-04-16T04:37:08.810Z,55.48
2018-04-16T04:37:31.635Z,55.49
2018-04-16T04:37:54.461Z,55.59
2018-04-16T04:38:16.513Z,55.50
2018-04-16T04:38:38.566Z,55.51
2018-04-16T04:39:00.624Z,55.53
2018-04-16T04:39:23.464Z,55.56
2018-04-16T04:39:46.334Z,55.58
2018-04-16T04:40:09.208Z,55.56
2018-04-16T04:40:31.277Z,55.56
2018-04-16T04:40:53.327Z,55.50
2018-04-16T04:41:15.371Z,55.53
2018-04-16T04:41:37.435Z,55.49
2018-04-16T04:41:59.469Z,55.48
2018-04-16T04:42:21.515Z,55.49
2018-04-16T04:42:43.566Z,55.46
2018-04-16T04:43:05.620Z,55.47
2018-04-16T04:43:27.683Z,55.46
2018-04-16T04:43:50.656Z,55.47
2018-04-16T04:44:12.716Z,55.56
2018-04-16T04:44:34.787Z,55.48
2018-04-16T04:44:57.006Z,55.54
2018-04-16T04:45:19.126Z,55.52
2018-04-16T04:45:41.139Z,55.51
2018-04-16T04:46:03.258Z,55.51
2018-04-16T04:46:25.305Z,55.50
2018-04-16T04:46:47.365Z,55.56
2018-04-16T04:47:10.279Z,55.47
2018-04-16T04:47:32.331Z,55.45
2018-04-16T04:47:55.155Z,55.48
2018-04-16T04:48:17.974Z,55.49
2018-04-16T04:48:40.031Z,55.46
2018-04-16T04:49:02.078Z,55.48
2018-04-16T04:49:24.143Z,55.44
2018-04-16T04:49:46.967Z,55.45
2018-04-16T04:50:09.059Z,55.47
2018-04-16T04:50:31.165Z,55.50
2018-04-16T04:50:53.206Z,55.45
2018-04-16T04:51:15.263Z,55.46
2018-04-16T04:51:37.346Z,55.47
2018-04-16T04:52:00.176Z,55.45
2018-04-16T04:52:22.231Z,55.46
2018-04-16T04:52:44.297Z,55.49
2018-04-16T04:53:06.351Z,55.45
2018-04-16T04:53:29.166Z,55.48
2018-04-16T04:53:51.227Z,55.45
2018-04-16T04:54:13.280Z,55.46
2018-04-16T04:54:35.360Z,55.43
2018-04-16T04:54:57.432Z,55.43
2018-04-16T04:55:19.508Z,55.47
2018-04-16T04:55:41.585Z,55.43
2018-04-16T04:56:04.412Z,55.45
2018-04-16T04:56:26.475Z,55.50
2018-04-16T04:56:48.553Z,55.51
2018-04-16T04:57:11.457Z,55.50
2018-04-16T04:57:33.525Z,55.52
2018-04-16T04:57:56.346Z,55.56
2018-04-16T04:58:19.261Z,55.54
2018-04-16T04:58:41.320Z,55.52
2018-04-16T04:59:03.379Z,55.51
2018-04-16T04:59:25.443Z,55.51
2018-04-16T04:59:48.267Z,55.50
2018-04-16T05:00:10.477Z,55.53
2018-04-16T05:00:32.541Z,55.53
2018-04-16T05:00:54.672Z,55.50
2018-04-16T05:01:16.732Z,55.53
2018-04-16T05:01:38.839Z,55.50
2018-04-16T05:02:00.981Z,55.55
2018-04-16T05:02:23.794Z,55.56
2018-04-16T05:02:45.853Z,55.50
2018-04-16T05:03:07.927Z,55.52
2018-04-16T05:03:30.005Z,55.52
2018-04-16T05:03:52.061Z,55.51
2018-04-16T05:04:14.115Z,55.61
2018-04-16T05:04:37.078Z,55.55
2018-04-16T05:04:59.135Z,55.55
2018-04-16T05:05:21.182Z,55.56
2018-04-16T05:05:43.257Z,55.57
2018-04-16T05:06:05.323Z,55.60
2018-04-16T05:06:28.151Z,55.57
2018-04-16T05:06:51.016Z,55.53
2018-04-16T05:07:13.132Z,55.60
2018-04-16T05:07:35.192Z,55.64
2018-04-16T05:07:57.280Z,55.58
2018-04-16T05:08:19.331Z,55.55
2018-04-16T05:08:41.405Z,55.55
2018-04-16T05:09:03.453Z,55.52
2018-04-16T05:09:25.559Z,55.53
2018-04-16T05:09:47.636Z,55.53
2018-04-16T05:10:10.613Z,55.58
2018-04-16T05:10:32.758Z,55.59
2018-04-16T05:10:54.812Z,55.61
2018-04-16T05:11:17.634Z,55.65
2018-04-16T05:11:40.440Z,55.61
2018-04-16T05:12:02.487Z,55.63
2018-04-16T05:12:25.316Z,55.63
2018-04-16T05:12:48.144Z,55.64
2018-04-16T05:13:10.200Z,55.65
2018-04-16T05:13:32.254Z,55.62
2018-04-16T05:13:54.311Z,55.67
2018-04-16T05:14:17.123Z,55.64
2018-04-16T05:14:39.180Z,55.65
2018-04-16T05:15:01.430Z,55.66
2018-04-16T05:15:23.487Z,55.66
2018-04-16T05:15:45.568Z,55.62
2018-04-16T05:16:07.615Z,55.64
2018-04-16T05:16:29.675Z,55.61
2018-04-16T05:16:51.760Z,55.60
2018-04-16T05:17:13.816Z,55.65
2018-04-16T05:17:35.884Z,55.62
2018-04-16T05:17:57.952Z,55.66
2018-04-16T05:18:20.009Z,55.68
2018-04-16T05:18:42.063Z,55.67
2018-04-16T05:19:05.066Z,55.71
2018-04-16T05:19:27.115Z,55.75
2018-04-16T05:19:49.927Z,55.68
2018-04-16T05:20:11.979Z,55.65
2018-04-16T05:20:34.040Z,55.71
2018-04-16T05:20:56.111Z,55.67
2018-04-16T05:21:18.948Z,55.71
2018-04-16T05:21:41.037Z,55.73
2018-04-16T05:22:03.171Z,55.72
2018-04-16T05:22:26.001Z,55.74
2018-04-16T05:22:48.841Z,55.75
2018-04-16T05:23:11.655Z,55.72
2018-04-16T05:23:33.746Z,55.73
2018-04-16T05:23:55.801Z,55.74
2018-04-16T05:24:17.864Z,55.74
2018-04-16T05:24:39.915Z,55.72
2018-04-16T05:25:01.974Z,55.74
2018-04-16T05:25:24.799Z,55.76
2018-04-16T05:25:47.660Z,55.75
2018-04-16T05:26:09.713Z,55.73
2018-04-16T05:26:31.767Z,55.74
2018-04-16T05:26:54.625Z,55.78
2018-04-16T05:27:16.688Z,55.78
2018-04-16T05:27:38.754Z,55.77
2018-04-16T05:28:00.823Z,55.79
2018-04-16T05:28:22.916Z,55.79
2018-04-16T05:28:44.974Z,55.79
2018-04-16T05:29:07.038Z,55.79
2018-04-16T05:29:29.105Z,55.83
2018-04-16T05:29:51.160Z,55.82
2018-04-16T05:30:13.214Z,55.79
2018-04-16T05:30:35.277Z,55.79
2018-04-16T05:30:58.092Z,55.79
2018-04-16T05:31:20.179Z,55.86
2018-04-16T05:31:42.269Z,55.82
2018-04-16T05:32:04.342Z,55.78
2018-04-16T05:32:26.401Z,55.83
2018-04-16T05:32:48.485Z,55.84
2018-04-16T05:33:10.779Z,55.87
2018-04-16T05:33:32.832Z,55.82
2018-04-16T05:33:54.893Z,55.83
2018-04-16T05:34:16.952Z,55.85
2018-04-16T05:34:38.999Z,55.86
2018-04-16T05:35:01.813Z,55.85
2018-04-16T05:35:23.862Z,55.82
2018-04-16T05:35:45.928Z,55.85
2018-04-16T05:36:07.976Z,55.83
2018-04-16T05:36:30.821Z,55.84
2018-04-16T05:36:53.664Z,55.83
2018-04-16T05:37:15.731Z,55.82
2018-04-16T05:37:37.792Z,55.83
2018-04-16T05:38:00.623Z,55.83
2018-04-16T05:38:23.460Z,55.85
2018-04-16T05:38:46.276Z,55.85
2018-04-16T05:39:08.337Z,55.86
2018-04-16T05:39:30.391Z,55.85
2018-04-16T05:39:52.448Z,55.85
2018-04-16T05:40:15.244Z,55.79
2018-04-16T05:40:37.307Z,55.82